sensor_id;sensor_type;location;lat;lon;timestamp;temperature;humidity
22426;DHT22;11380;50.822;15.790;2023-04-25T00:02:05;8.20;99.90
22426;DHT22;11380;50.822;15.790;2023-04-25T00:07:11;8.10;99.90
22426;DHT22;11380;50.822;15.790;2023-04-25T00:12:17;8.00;99.90
22426;DHT22;11380;50.822;15.790;2023-04-25T00:17:24;8.00;99.90
22426;DHT22;11380;50.822;15.790;2023-04-25T00:22:30;8.00;99.90
22426;DHT22;11380;50.822;15.790;2023-04-25T00:27:38;8.00;99.90
22426;DHT22;11380;50.822;15.790;2023-04-25T00:32:45;7.80;99.90
22426;DHT22;11380;50.822;15.790;2023-04-25T00:37:51;7.90;99.90
22426;DHT22;11380;50.822;15.790;2023-04-25T00:42:57;7.80;99.90
22426;DHT22;11380;50.822;15.790;2023-04-25T00:48:03;7.70;99.90
22426;DHT22;11380;50.822;15.790;2023-04-25T00:53:10;7.80;99.90
22426;DHT22;11380;50.822;15.790;2023-04-25T00:58:17;7.70;99.90
22426;DHT22;11380;50.822;15.790;2023-04-25T01:03:23;7.80;99.90
22426;DHT22;11380;50.822;15.790;2023-04-25T01:08:31;7.90;99.90
22426;DHT22;11380;50.822;15.790;2023-04-25T01:13:37;7.70;99.90
22426;DHT22;11380;50.822;15.790;2023-04-25T01:18:45;7.50;99.90
22426;DHT22;11380;50.822;15.790;2023-04-25T01:23:51;7.60;99.90
22426;DHT22;11380;50.822;15.790;2023-04-25T01:28:59;7.50;99.90
22426;DHT22;11380;50.822;15.790;2023-04-25T01:34:05;7.50;99.90
22426;DHT22;11380;50.822;15.790;2023-04-25T01:39:10;7.50;7.10
22426;DHT22;11380;50.822;15.790;2023-04-25T01:44:17;7.60;99.90
22426;DHT22;11380;50.822;15.790;2023-04-25T01:49:23;7.60;99.90
22426;DHT22;11380;50.822;15.790;2023-04-25T01:54:31;7.40;99.90
22426;DHT22;11380;50.822;15.790;2023-04-25T01:59:36;7.20;99.90
22426;DHT22;11380;50.822;15.790;2023-04-25T02:04:42;7.00;99.90
22426;DHT22;11380;50.822;15.790;2023-04-25T02:09:48;6.90;99.90
22426;DHT22;11380;50.822;15.790;2023-04-25T02:14:54;6.80;99.90
22426;DHT22;11380;50.822;15.790;2023-04-25T02:20:00;6.70;99.90
22426;DHT22;11380;50.822;15.790;2023-04-25T02:25:08;6.60;99.90
22426;DHT22;11380;50.822;15.790;2023-04-25T02:30:15;6.70;99.90
22426;DHT22;11380;50.822;15.790;2023-04-25T02:35:21;6.40;1.00
22426;DHT22;11380;50.822;15.790;2023-04-25T02:40:28;6.50;1.00
22426;DHT22;11380;50.822;15.790;2023-04-25T02:45:34;6.30;1.00
22426;DHT22;11380;50.822;15.790;2023-04-25T02:50:40;6.30;1.00
22426;DHT22;11380;50.822;15.790;2023-04-25T02:55:46;6.50;1.00
22426;DHT22;11380;50.822;15.790;2023-04-25T03:00:53;6.60;1.00
22426;DHT22;11380;50.822;15.790;2023-04-25T03:05:59;6.50;1.00
22426;DHT22;11380;50.822;15.790;2023-04-25T03:11:05;6.60;1.00
22426;DHT22;11380;50.822;15.790;2023-04-25T03:16:12;6.40;1.00
22426;DHT22;11380;50.822;15.790;2023-04-25T03:21:18;6.30;1.00
22426;DHT22;11380;50.822;15.790;2023-04-25T03:26:23;6.20;1.00
22426;DHT22;11380;50.822;15.790;2023-04-25T03:31:30;6.10;1.00
22426;DHT22;11380;50.822;15.790;2023-04-25T03:36:36;5.90;1.00
22426;DHT22;11380;50.822;15.790;2023-04-25T03:41:44;5.90;1.00
22426;DHT22;11380;50.822;15.790;2023-04-25T03:46:50;6.00;1.00
22426;DHT22;11380;50.822;15.790;2023-04-25T03:51:56;5.80;1.00
22426;DHT22;11380;50.822;15.790;2023-04-25T03:57:02;6.00;1.00
22426;DHT22;11380;50.822;15.790;2023-04-25T04:02:09;6.10;1.00
22426;DHT22;11380;50.822;15.790;2023-04-25T04:07:15;6.20;1.00
22426;DHT22;11380;50.822;15.790;2023-04-25T04:12:22;5.90;1.00
22426;DHT22;11380;50.822;15.790;2023-04-25T04:17:27;5.80;1.00
22426;DHT22;11380;50.822;15.790;2023-04-25T04:22:34;5.80;1.00
22426;DHT22;11380;50.822;15.790;2023-04-25T04:27:40;5.60;1.00
22426;DHT22;11380;50.822;15.790;2023-04-25T04:32:48;5.90;1.00
22426;DHT22;11380;50.822;15.790;2023-04-25T04:37:55;6.00;1.00
22426;DHT22;11380;50.822;15.790;2023-04-25T04:43:01;5.60;1.00
22426;DHT22;11380;50.822;15.790;2023-04-25T04:48:07;5.70;1.00
22426;DHT22;11380;50.822;15.790;2023-04-25T04:53:14;6.00;1.00
22426;DHT22;11380;50.822;15.790;2023-04-25T04:58:23;5.90;1.00
22426;DHT22;11380;50.822;15.790;2023-04-25T05:03:29;5.80;1.00
22426;DHT22;11380;50.822;15.790;2023-04-25T05:08:36;5.90;1.00
22426;DHT22;11380;50.822;15.790;2023-04-25T05:13:42;6.30;1.00
22426;DHT22;11380;50.822;15.790;2023-04-25T05:18:48;6.70;1.00
22426;DHT22;11380;50.822;15.790;2023-04-25T05:23:55;6.90;1.00
22426;DHT22;11380;50.822;15.790;2023-04-25T05:29:01;6.90;1.00
22426;DHT22;11380;50.822;15.790;2023-04-25T05:34:08;6.90;1.00
22426;DHT22;11380;50.822;15.790;2023-04-25T05:39:14;6.60;1.00
22426;DHT22;11380;50.822;15.790;2023-04-25T05:44:21;7.50;1.00
22426;DHT22;11380;50.822;15.790;2023-04-25T05:49:27;8.30;1.00
22426;DHT22;11380;50.822;15.790;2023-04-25T05:54:32;8.70;1.00
22426;DHT22;11380;50.822;15.790;2023-04-25T05:59:39;9.00;99.90
22426;DHT22;11380;50.822;15.790;2023-04-25T06:04:44;9.30;99.90
22426;DHT22;11380;50.822;15.790;2023-04-25T06:09:50;9.60;99.90
22426;DHT22;11380;50.822;15.790;2023-04-25T06:14:57;9.70;99.90
22426;DHT22;11380;50.822;15.790;2023-04-25T06:20:04;9.90;99.90
22426;DHT22;11380;50.822;15.790;2023-04-25T06:25:11;9.70;99.90
22426;DHT22;11380;50.822;15.790;2023-04-25T06:30:17;9.60;99.90
22426;DHT22;11380;50.822;15.790;2023-04-25T06:35:24;9.50;99.90
22426;DHT22;11380;50.822;15.790;2023-04-25T06:40:31;9.80;99.90
22426;DHT22;11380;50.822;15.790;2023-04-25T06:45:36;10.00;99.90
22426;DHT22;11380;50.822;15.790;2023-04-25T06:50:43;10.30;99.90
22426;DHT22;11380;50.822;15.790;2023-04-25T06:55:49;10.50;99.90
22426;DHT22;11380;50.822;15.790;2023-04-25T07:00:57;10.80;99.90
22426;DHT22;11380;50.822;15.790;2023-04-25T07:06:03;10.70;99.90
22426;DHT22;11380;50.822;15.790;2023-04-25T07:11:09;10.80;99.90
22426;DHT22;11380;50.822;15.790;2023-04-25T07:16:15;11.20;96.10
22426;DHT22;11380;50.822;15.790;2023-04-25T07:21:21;11.20;1.00
22426;DHT22;11380;50.822;15.790;2023-04-25T07:26:27;11.10;99.90
22426;DHT22;11380;50.822;15.790;2023-04-25T07:31:33;11.70;99.90
22426;DHT22;11380;50.822;15.790;2023-04-25T07:36:39;11.30;99.90
22426;DHT22;11380;50.822;15.790;2023-04-25T07:41:49;11.20;99.90
22426;DHT22;11380;50.822;15.790;2023-04-25T07:46:54;12.40;99.90
22426;DHT22;11380;50.822;15.790;2023-04-25T07:52:02;12.60;99.90
22426;DHT22;11380;50.822;15.790;2023-04-25T07:57:12;12.70;99.90
22426;DHT22;11380;50.822;15.790;2023-04-25T08:02:17;12.10;99.90
22426;DHT22;11380;50.822;15.790;2023-04-25T08:07:24;13.50;99.90
22426;DHT22;11380;50.822;15.790;2023-04-25T08:12:30;13.10;99.90
22426;DHT22;11380;50.822;15.790;2023-04-25T08:17:36;13.80;99.90
22426;DHT22;11380;50.822;15.790;2023-04-25T08:22:42;13.90;99.90
22426;DHT22;11380;50.822;15.790;2023-04-25T08:27:48;13.00;35.30
22426;DHT22;11380;50.822;15.790;2023-04-25T08:32:54;13.00;3.90
22426;DHT22;11380;50.822;15.790;2023-04-25T08:38:00;13.10;1.00
22426;DHT22;11380;50.822;15.790;2023-04-25T08:43:06;12.90;3.60
22426;DHT22;11380;50.822;15.790;2023-04-25T08:48:16;12.40;1.00
22426;DHT22;11380;50.822;15.790;2023-04-25T08:53:25;12.20;11.90
22426;DHT22;11380;50.822;15.790;2023-04-25T08:58:33;13.00;59.10
22426;DHT22;11380;50.822;15.790;2023-04-25T09:03:40;12.60;47.40
22426;DHT22;11380;50.822;15.790;2023-04-25T09:08:49;12.30;1.00
22426;DHT22;11380;50.822;15.790;2023-04-25T09:19:25;12.00;1.00
22426;DHT22;11380;50.822;15.790;2023-04-25T09:24:30;12.00;1.00
22426;DHT22;11380;50.822;15.790;2023-04-25T09:29:41;12.60;1.00
22426;DHT22;11380;50.822;15.790;2023-04-25T09:34:51;11.90;1.00
22426;DHT22;11380;50.822;15.790;2023-04-25T09:39:59;11.50;1.00
22426;DHT22;11380;50.822;15.790;2023-04-25T09:45:07;11.60;1.00
22426;DHT22;11380;50.822;15.790;2023-04-25T09:50:14;11.40;1.00
22426;DHT22;11380;50.822;15.790;2023-04-25T09:55:23;11.40;1.00
22426;DHT22;11380;50.822;15.790;2023-04-25T10:00:30;11.50;1.00
22426;DHT22;11380;50.822;15.790;2023-04-25T10:05:37;11.30;1.00
22426;DHT22;11380;50.822;15.790;2023-04-25T10:10:44;11.60;1.00
22426;DHT22;11380;50.822;15.790;2023-04-25T10:15:49;12.00;1.00
22426;DHT22;11380;50.822;15.790;2023-04-25T10:21:04;11.80;1.00
22426;DHT22;11380;50.822;15.790;2023-04-25T10:26:04;11.50;1.00
22426;DHT22;11380;50.822;15.790;2023-04-25T10:31:12;12.70;1.00
22426;DHT22;11380;50.822;15.790;2023-04-25T10:36:21;12.70;1.00
22426;DHT22;11380;50.822;15.790;2023-04-25T10:41:28;12.00;1.00
22426;DHT22;11380;50.822;15.790;2023-04-25T10:46:35;12.90;1.00
22426;DHT22;11380;50.822;15.790;2023-04-25T10:51:42;13.60;1.00
22426;DHT22;11380;50.822;15.790;2023-04-25T10:56:50;13.20;1.00
22426;DHT22;11380;50.822;15.790;2023-04-25T11:01:58;12.70;1.00
22426;DHT22;11380;50.822;15.790;2023-04-25T11:12:31;13.60;1.00
22426;DHT22;11380;50.822;15.790;2023-04-25T11:17:36;13.10;1.00
22426;DHT22;11380;50.822;15.790;2023-04-25T11:22:45;13.30;1.00
22426;DHT22;11380;50.822;15.790;2023-04-25T11:27:53;13.30;1.00
22426;DHT22;11380;50.822;15.790;2023-04-25T11:33:02;13.90;1.00
22426;DHT22;11380;50.822;15.790;2023-04-25T11:38:08;13.60;1.00
22426;DHT22;11380;50.822;15.790;2023-04-25T11:43:15;12.60;1.00
22426;DHT22;11380;50.822;15.790;2023-04-25T11:48:23;13.00;1.00
22426;DHT22;11380;50.822;15.790;2023-04-25T11:53:29;12.60;1.00
22426;DHT22;11380;50.822;15.790;2023-04-25T11:58:53;12.30;1.00
22426;DHT22;11380;50.822;15.790;2023-04-25T12:04:15;12.20;1.00
22426;DHT22;11380;50.822;15.790;2023-04-25T12:09:27;12.30;1.00
22426;DHT22;11380;50.822;15.790;2023-04-25T12:14:36;12.30;1.00
22426;DHT22;11380;50.822;15.790;2023-04-25T12:19:43;12.70;1.00
22426;DHT22;11380;50.822;15.790;2023-04-25T12:24:50;11.90;1.00
22426;DHT22;11380;50.822;15.790;2023-04-25T12:29:58;11.60;1.00
22426;DHT22;11380;50.822;15.790;2023-04-25T12:35:06;11.70;1.00
22426;DHT22;11380;50.822;15.790;2023-04-25T12:40:14;11.90;1.00
22426;DHT22;11380;50.822;15.790;2023-04-25T12:45:21;12.30;1.00
22426;DHT22;11380;50.822;15.790;2023-04-25T12:50:27;12.00;1.00
22426;DHT22;11380;50.822;15.790;2023-04-25T12:55:33;11.50;1.00
22426;DHT22;11380;50.822;15.790;2023-04-25T13:00:39;11.60;1.00
22426;DHT22;11380;50.822;15.790;2023-04-25T13:05:47;11.90;1.00
22426;DHT22;11380;50.822;15.790;2023-04-25T13:10:54;11.90;1.00
22426;DHT22;11380;50.822;15.790;2023-04-25T13:16:01;11.90;1.00
22426;DHT22;11380;50.822;15.790;2023-04-25T13:21:09;11.90;1.00
22426;DHT22;11380;50.822;15.790;2023-04-25T13:26:17;11.80;1.00
22426;DHT22;11380;50.822;15.790;2023-04-25T13:31:24;11.80;1.00
22426;DHT22;11380;50.822;15.790;2023-04-25T13:36:31;11.70;1.00
22426;DHT22;11380;50.822;15.790;2023-04-25T13:41:36;11.40;1.00
22426;DHT22;11380;50.822;15.790;2023-04-25T13:46:42;11.30;1.00
22426;DHT22;11380;50.822;15.790;2023-04-25T13:51:50;11.20;1.00
22426;DHT22;11380;50.822;15.790;2023-04-25T13:56:56;11.30;1.00
22426;DHT22;11380;50.822;15.790;2023-04-25T14:02:03;11.30;1.00
22426;DHT22;11380;50.822;15.790;2023-04-25T14:07:09;11.00;1.00
22426;DHT22;11380;50.822;15.790;2023-04-25T14:12:17;10.90;1.00
22426;DHT22;11380;50.822;15.790;2023-04-25T14:17:23;10.80;99.90
22426;DHT22;11380;50.822;15.790;2023-04-25T14:22:29;10.60;99.90
22426;DHT22;11380;50.822;15.790;2023-04-25T14:27:36;10.40;99.90
22426;DHT22;11380;50.822;15.790;2023-04-25T14:32:43;10.10;1.00
22426;DHT22;11380;50.822;15.790;2023-04-25T14:37:50;10.00;14.40
22426;DHT22;11380;50.822;15.790;2023-04-25T14:42:56;10.10;1.00
22426;DHT22;11380;50.822;15.790;2023-04-25T14:48:03;10.20;99.90
22426;DHT22;11380;50.822;15.790;2023-04-25T14:53:10;10.40;96.90
22426;DHT22;11380;50.822;15.790;2023-04-25T14:58:19;10.30;99.90
22426;DHT22;11380;50.822;15.790;2023-04-25T15:03:27;10.00;99.90
22426;DHT22;11380;50.822;15.790;2023-04-25T15:08:34;9.70;99.90
22426;DHT22;11380;50.822;15.790;2023-04-25T15:13:41;9.60;99.90
22426;DHT22;11380;50.822;15.790;2023-04-25T15:18:48;9.40;99.90
22426;DHT22;11380;50.822;15.790;2023-04-25T15:23:54;9.50;99.90
22426;DHT22;11380;50.822;15.790;2023-04-25T15:29:00;9.40;1.00
22426;DHT22;11380;50.822;15.790;2023-04-25T15:34:09;9.10;99.90
22426;DHT22;11380;50.822;15.790;2023-04-25T15:39:15;8.70;1.00
22426;DHT22;11380;50.822;15.790;2023-04-25T15:44:21;8.50;1.00
22426;DHT22;11380;50.822;15.790;2023-04-25T15:49:28;7.90;20.20
22426;DHT22;11380;50.822;15.790;2023-04-25T15:54:34;7.70;99.90
22426;DHT22;11380;50.822;15.790;2023-04-25T15:59:41;7.50;99.90
22426;DHT22;11380;50.822;15.790;2023-04-25T16:04:47;7.40;99.90
22426;DHT22;11380;50.822;15.790;2023-04-25T16:09:53;7.60;99.90
22426;DHT22;11380;50.822;15.790;2023-04-25T16:15:01;7.70;99.90
22426;DHT22;11380;50.822;15.790;2023-04-25T16:20:08;7.80;99.90
22426;DHT22;11380;50.822;15.790;2023-04-25T16:25:15;8.10;93.80
22426;DHT22;11380;50.822;15.790;2023-04-25T16:30:21;8.10;13.10
22426;DHT22;11380;50.822;15.790;2023-04-25T16:35:27;7.90;1.00
22426;DHT22;11380;50.822;15.790;2023-04-25T16:40:36;7.90;1.00
22426;DHT22;11380;50.822;15.790;2023-04-25T16:45:42;7.90;1.00
22426;DHT22;11380;50.822;15.790;2023-04-25T16:50:51;8.00;1.00
22426;DHT22;11380;50.822;15.790;2023-04-25T16:55:58;8.00;1.00
22426;DHT22;11380;50.822;15.790;2023-04-25T17:01:04;7.90;1.00
22426;DHT22;11380;50.822;15.790;2023-04-25T17:06:10;7.90;1.00
22426;DHT22;11380;50.822;15.790;2023-04-25T17:11:17;7.90;99.90
22426;DHT22;11380;50.822;15.790;2023-04-25T17:16:23;7.60;1.00
22426;DHT22;11380;50.822;15.790;2023-04-25T17:21:32;7.70;1.00
22426;DHT22;11380;50.822;15.790;2023-04-25T17:26:37;7.70;99.90
22426;DHT22;11380;50.822;15.790;2023-04-25T17:31:44;7.60;99.90
22426;DHT22;11380;50.822;15.790;2023-04-25T17:36:51;7.80;99.90
22426;DHT22;11380;50.822;15.790;2023-04-25T17:41:57;7.70;1.00
22426;DHT22;11380;50.822;15.790;2023-04-25T17:47:04;7.70;99.90
22426;DHT22;11380;50.822;15.790;2023-04-25T17:52:11;7.70;83.30
22426;DHT22;11380;50.822;15.790;2023-04-25T17:57:18;7.70;99.90
22426;DHT22;11380;50.822;15.790;2023-04-25T18:02:26;7.70;99.90
22426;DHT22;11380;50.822;15.790;2023-04-25T18:07:33;7.50;99.90
22426;DHT22;11380;50.822;15.790;2023-04-25T18:12:40;7.50;99.90
22426;DHT22;11380;50.822;15.790;2023-04-25T18:17:46;7.40;99.90
22426;DHT22;11380;50.822;15.790;2023-04-25T18:22:52;7.30;72.00
22426;DHT22;11380;50.822;15.790;2023-04-25T18:28:01;7.30;99.90
22426;DHT22;11380;50.822;15.790;2023-04-25T18:33:10;7.20;59.00
22426;DHT22;11380;50.822;15.790;2023-04-25T18:38:17;7.20;1.00
22426;DHT22;11380;50.822;15.790;2023-04-25T18:43:25;7.20;1.00
22426;DHT22;11380;50.822;15.790;2023-04-25T18:48:32;7.20;1.00
22426;DHT22;11380;50.822;15.790;2023-04-25T18:53:39;7.10;1.00
22426;DHT22;11380;50.822;15.790;2023-04-25T18:58:45;7.00;19.10
22426;DHT22;11380;50.822;15.790;2023-04-25T19:03:51;6.90;1.00
22426;DHT22;11380;50.822;15.790;2023-04-25T19:09:00;6.80;1.00
22426;DHT22;11380;50.822;15.790;2023-04-25T19:14:12;6.80;1.00
22426;DHT22;11380;50.822;15.790;2023-04-25T19:19:19;6.80;1.00
22426;DHT22;11380;50.822;15.790;2023-04-25T19:24:25;6.70;1.00
22426;DHT22;11380;50.822;15.790;2023-04-25T19:29:32;6.80;1.00
22426;DHT22;11380;50.822;15.790;2023-04-25T19:34:38;6.80;1.00
22426;DHT22;11380;50.822;15.790;2023-04-25T19:39:43;6.70;1.00
22426;DHT22;11380;50.822;15.790;2023-04-25T19:44:50;6.70;1.00
22426;DHT22;11380;50.822;15.790;2023-04-25T19:49:57;6.60;1.00
22426;DHT22;11380;50.822;15.790;2023-04-25T19:55:05;6.60;1.00
22426;DHT22;11380;50.822;15.790;2023-04-25T20:00:13;6.50;1.00
22426;DHT22;11380;50.822;15.790;2023-04-25T20:05:21;6.50;1.00
22426;DHT22;11380;50.822;15.790;2023-04-25T20:10:27;6.60;1.00
22426;DHT22;11380;50.822;15.790;2023-04-25T20:15:33;6.50;99.90
22426;DHT22;11380;50.822;15.790;2023-04-25T20:20:40;6.40;1.00
22426;DHT22;11380;50.822;15.790;2023-04-25T20:25:46;6.30;1.00
22426;DHT22;11380;50.822;15.790;2023-04-25T20:30:52;6.20;99.90
22426;DHT22;11380;50.822;15.790;2023-04-25T20:35:58;6.30;1.00
22426;DHT22;11380;50.822;15.790;2023-04-25T20:41:04;6.10;99.90
22426;DHT22;11380;50.822;15.790;2023-04-25T20:46:10;6.00;99.90
22426;DHT22;11380;50.822;15.790;2023-04-25T20:51:16;6.00;61.10
22426;DHT22;11380;50.822;15.790;2023-04-25T20:56:22;5.80;46.70
22426;DHT22;11380;50.822;15.790;2023-04-25T21:01:30;5.70;75.70
22426;DHT22;11380;50.822;15.790;2023-04-25T21:06:37;5.60;46.70
22426;DHT22;11380;50.822;15.790;2023-04-25T21:11:44;5.50;1.00
22426;DHT22;11380;50.822;15.790;2023-04-25T21:16:51;5.50;5.00
22426;DHT22;11380;50.822;15.790;2023-04-25T21:21:57;5.40;1.00
22426;DHT22;11380;50.822;15.790;2023-04-25T21:27:04;5.20;99.90
22426;DHT22;11380;50.822;15.790;2023-04-25T21:32:10;5.10;99.90
22426;DHT22;11380;50.822;15.790;2023-04-25T21:37:18;5.10;99.90
22426;DHT22;11380;50.822;15.790;2023-04-25T21:42:24;5.10;74.50
22426;DHT22;11380;50.822;15.790;2023-04-25T21:47:34;5.10;4.10
22426;DHT22;11380;50.822;15.790;2023-04-25T21:52:41;5.10;1.00
22426;DHT22;11380;50.822;15.790;2023-04-25T21:57:47;5.10;1.00
22426;DHT22;11380;50.822;15.790;2023-04-25T22:02:55;5.10;1.00
22426;DHT22;11380;50.822;15.790;2023-04-25T22:08:02;5.10;1.00
22426;DHT22;11380;50.822;15.790;2023-04-25T22:13:07;4.90;1.00
22426;DHT22;11380;50.822;15.790;2023-04-25T22:18:15;5.20;1.00
22426;DHT22;11380;50.822;15.790;2023-04-25T22:23:22;5.20;1.00
22426;DHT22;11380;50.822;15.790;2023-04-25T22:28:28;5.10;1.00
22426;DHT22;11380;50.822;15.790;2023-04-25T22:33:35;4.90;1.00
22426;DHT22;11380;50.822;15.790;2023-04-25T22:38:41;4.60;1.00
22426;DHT22;11380;50.822;15.790;2023-04-25T22:43:48;4.60;99.90
22426;DHT22;11380;50.822;15.790;2023-04-25T22:48:54;4.30;80.70
22426;DHT22;11380;50.822;15.790;2023-04-25T22:54:01;4.30;27.40
22426;DHT22;11380;50.822;15.790;2023-04-25T22:59:08;4.60;1.00
22426;DHT22;11380;50.822;15.790;2023-04-25T23:04:15;4.80;1.00
22426;DHT22;11380;50.822;15.790;2023-04-25T23:09:22;4.70;1.00
22426;DHT22;11380;50.822;15.790;2023-04-25T23:14:28;4.90;1.00
22426;DHT22;11380;50.822;15.790;2023-04-25T23:19:34;5.00;1.00
22426;DHT22;11380;50.822;15.790;2023-04-25T23:24:41;5.00;99.90
22426;DHT22;11380;50.822;15.790;2023-04-25T23:29:50;5.00;99.90
22426;DHT22;11380;50.822;15.790;2023-04-25T23:35:00;5.00;99.90
22426;DHT22;11380;50.822;15.790;2023-04-25T23:40:07;5.20;99.90
22426;DHT22;11380;50.822;15.790;2023-04-25T23:45:16;5.10;99.90
22426;DHT22;11380;50.822;15.790;2023-04-25T23:50:22;5.10;99.90
22426;DHT22;11380;50.822;15.790;2023-04-25T23:55:29;5.00;99.90
